Advance, Indiana
Current Conditions -  °F | °C
As of 10:35 PM on Monday 22 Dec 2014 (Local Time) from KFKR Reporting Station
Drizzle Drizzle  
Wind Chill: 35°   Ceiling: 2100
Heat Index: 42°   Visibility: 7mi
Dew Point: 42°   Wind: 12mph
Humidity: 100%   Direction: 90°E
Pressure: 29.66"   Gusts: NA
Location:  40°N, 86.62°W
Report Text: KFKR 230335Z AUTO 09010KT 7SM -DZ SCT011 SCT014 BKN021 06/06 A2966 RMK AO2 T00550055
Loading
Personal Weather Stations






























Interactive Weather Map New forecast layout! Learn more

10-Day Weather Forecast

Advertisements
Track Severe Weather on mobile